createdAt,value
2023-01-19T00:01:01.100Z,80.86
2023-01-19T00:03:28.913Z,80.84
2023-01-19T00:05:56.839Z,81.57
2023-01-19T00:08:24.564Z,81.16
2023-01-19T00:10:51.664Z,80.36
2023-01-19T00:13:18.436Z,79.86
2023-01-19T00:15:45.383Z,80.62
2023-01-19T00:18:12.447Z,81.10
2023-01-19T00:20:40.795Z,80.95
2023-01-19T00:23:08.449Z,80.04
2023-01-19T00:25:36.253Z,79.09
2023-01-19T00:28:04.297Z,78.14
2023-01-19T00:30:32.036Z,78.04
2023-01-19T00:33:00.351Z,77.81
2023-01-19T00:35:28.287Z,77.33
2023-01-19T00:37:56.824Z,77.16
2023-01-19T00:40:23.808Z,77.30
2023-01-19T00:42:50.743Z,78.00
2023-01-19T00:45:20.328Z,78.90
2023-01-19T00:47:48.840Z,77.63
2023-01-19T00:50:17.737Z,78.93
2023-01-19T00:52:45.068Z,80.18
2023-01-19T00:55:15.329Z,80.04
2023-01-19T00:57:43.439Z,80.65
2023-01-19T01:00:14.468Z,79.93
2023-01-19T01:02:43.575Z,78.84
2023-01-19T01:05:12.451Z,78.03
2023-01-19T01:07:41.920Z,77.49
2023-01-19T01:10:18.506Z,77.36
2023-01-19T01:12:54.974Z,78.70
2023-01-19T01:15:27.833Z,79.59
2023-01-19T01:17:56.325Z,80.29
2023-01-19T01:20:28.271Z,80.35
2023-01-19T01:22:55.852Z,80.48
2023-01-19T01:25:25.798Z,80.81
2023-01-19T01:27:54.952Z,80.30
2023-01-19T01:30:23.580Z,80.41
2023-01-19T01:32:51.551Z,79.94
2023-01-19T01:35:19.324Z,79.56
2023-01-19T01:37:46.164Z,79.50
2023-01-19T01:40:15.139Z,79.22
2023-01-19T01:42:42.743Z,79.99
2023-01-19T01:45:26.100Z,82.05
2023-01-19T01:47:57.557Z,83.13
2023-01-19T01:50:32.808Z,82.76
2023-01-19T01:53:07.967Z,82.09
2023-01-19T01:55:39.957Z,82.37
2023-01-19T01:58:10.034Z,83.81
2023-01-19T02:00:59.420Z,84.27
2023-01-19T02:03:27.994Z,84.72
2023-01-19T02:06:00.492Z,84.83
2023-01-19T02:09:01.953Z,84.35
2023-01-19T02:11:48.640Z,83.31
2023-01-19T02:14:16.332Z,84.25
2023-01-19T02:16:43.239Z,84.45
2023-01-19T02:19:16.730Z,83.75
2023-01-19T02:21:52.272Z,82.93
2023-01-19T02:24:19.552Z,82.63
2023-01-19T02:26:49.045Z,82.35
2023-01-19T02:29:19.918Z,83.64
2023-01-19T02:31:47.074Z,84.81
2023-01-19T02:34:17.601Z,85.54
2023-01-19T02:37:06.860Z,85.78
2023-01-19T02:39:38.859Z,85.76
2023-01-19T02:42:13.271Z,86.11
2023-01-19T02:44:45.542Z,85.37
2023-01-19T02:47:13.902Z,85.26
2023-01-19T02:49:42.401Z,84.40
2023-01-19T02:52:18.176Z,83.32
2023-01-19T02:55:02.013Z,83.43
2023-01-19T02:57:50.234Z,83.65
2023-01-19T03:00:38.677Z,82.54
2023-01-19T03:03:23.713Z,81.80
2023-01-19T03:05:57.060Z,83.31
2023-01-19T03:08:41.921Z,84.85
2023-01-19T03:11:12.871Z,84.61
2023-01-19T03:14:00.968Z,85.87
2023-01-19T03:16:51.475Z,85.91
2023-01-19T03:19:43.881Z,85.56
2023-01-19T03:22:19.411Z,84.28
2023-01-19T03:24:50.244Z,84.62
2023-01-19T03:27:27.711Z,84.64
2023-01-19T03:30:06.114Z,84.65
2023-01-19T03:32:41.673Z,85.47
2023-01-19T03:35:14.271Z,85.57
2023-01-19T03:37:44.793Z,86.19
2023-01-19T03:40:12.963Z,85.73
2023-01-19T03:42:42.709Z,85.75
2023-01-19T03:45:12.827Z,86.03
2023-01-19T03:47:41.268Z,85.64
2023-01-19T03:50:14.745Z,85.10
2023-01-19T03:52:42.619Z,84.47
2023-01-19T03:55:10.613Z,84.78
2023-01-19T03:57:38.548Z,84.27
2023-01-19T04:00:07.054Z,83.75
2023-01-19T04:02:33.932Z,83.21
2023-01-19T04:05:01.698Z,82.62
2023-01-19T04:07:29.701Z,84.09
2023-01-19T04:09:56.750Z,86.52
2023-01-19T04:12:25.077Z,86.84
2023-01-19T04:14:52.119Z,87.55
2023-01-19T04:17:19.855Z,87.49
2023-01-19T04:19:47.693Z,86.35
2023-01-19T04:22:15.882Z,86.60
2023-01-19T04:24:43.921Z,86.72
2023-01-19T04:27:11.074Z,86.46
2023-01-19T04:29:38.183Z,86.93
2023-01-19T04:32:06.042Z,86.55
2023-01-19T04:34:34.234Z,86.81
2023-01-19T04:37:01.537Z,87.13
2023-01-19T04:39:28.641Z,89.32
2023-01-19T04:41:57.802Z,89.70
2023-01-19T04:44:25.770Z,89.34
2023-01-19T04:46:54.122Z,88.35
2023-01-19T04:49:21.528Z,88.35
2023-01-19T04:51:50.009Z,89.58
2023-01-19T04:54:18.329Z,88.93
2023-01-19T04:56:46.971Z,88.45
2023-01-19T04:59:15.775Z,88.45
2023-01-19T05:01:42.738Z,89.06
2023-01-19T05:04:10.491Z,90.93
2023-01-19T05:06:38.379Z,91.25
2023-01-19T05:09:09.157Z,91.21
2023-01-19T05:11:36.835Z,90.34
2023-01-19T05:14:03.778Z,89.73
2023-01-19T05:16:32.164Z,89.54
2023-01-19T05:18:59.811Z,89.58
2023-01-19T05:21:28.400Z,89.99
2023-01-19T05:23:56.637Z,89.45
2023-01-19T05:26:23.554Z,89.86
2023-01-19T05:28:51.194Z,89.67
2023-01-19T05:31:20.923Z,89.54
2023-01-19T05:33:49.175Z,90.39
2023-01-19T05:36:18.703Z,90.10
2023-01-19T05:38:46.546Z,89.80
2023-01-19T05:41:14.582Z,89.56
2023-01-19T05:43:42.498Z,90.84
2023-01-19T05:46:09.779Z,90.80
2023-01-19T05:48:40.129Z,90.87
2023-01-19T05:51:09.179Z,90.89
2023-01-19T05:53:37.072Z,90.52
2023-01-19T05:56:10.470Z,90.26
2023-01-19T05:58:41.957Z,89.48
2023-01-19T06:01:10.699Z,89.40
2023-01-19T06:03:39.468Z,88.65
2023-01-19T06:06:07.564Z,89.59
2023-01-19T06:08:35.441Z,89.02
2023-01-19T06:11:06.085Z,89.09
2023-01-19T06:13:34.429Z,89.22
2023-01-19T06:16:03.952Z,88.59
2023-01-19T06:18:31.724Z,87.29
2023-01-19T06:21:14.478Z,87.63
2023-01-19T06:23:45.032Z,86.79
2023-01-19T06:26:13.671Z,88.85
2023-01-19T06:28:40.548Z,89.59
2023-01-19T06:31:08.462Z,88.84
2023-01-19T06:33:36.304Z,86.87
2023-01-19T06:36:04.220Z,86.29
2023-01-19T06:38:33.484Z,85.27
2023-01-19T06:41:02.746Z,84.27
2023-01-19T06:43:31.513Z,84.77
2023-01-19T06:46:05.124Z,84.05
2023-01-19T06:48:32.995Z,83.36
2023-01-19T06:51:00.308Z,83.75
2023-01-19T06:53:30.450Z,83.76
2023-01-19T06:56:02.774Z,82.50
2023-01-19T06:58:34.045Z,84.30
2023-01-19T07:01:05.789Z,84.70
2023-01-19T07:03:34.830Z,83.89
2023-01-19T07:06:06.825Z,83.33
2023-01-19T07:08:36.475Z,83.32
2023-01-19T07:11:24.733Z,84.99
2023-01-19T07:13:55.675Z,84.68
2023-01-19T07:16:25.531Z,84.72
2023-01-19T07:18:53.420Z,85.47
2023-01-19T07:21:21.850Z,85.30
2023-01-19T07:23:53.070Z,84.68
2023-01-19T07:26:21.864Z,86.24
2023-01-19T07:28:54.714Z,86.97
2023-01-19T07:31:24.702Z,85.65
2023-01-19T07:33:54.312Z,85.39
2023-01-19T07:36:22.301Z,85.69
2023-01-19T07:38:49.913Z,86.17
2023-01-19T07:41:17.747Z,87.24
2023-01-19T07:43:45.539Z,86.57
2023-01-19T07:46:12.544Z,88.61
2023-01-19T07:48:40.467Z,88.04
2023-01-19T07:51:12.973Z,88.39
2023-01-19T07:53:42.157Z,87.91
2023-01-19T07:56:11.683Z,88.41
2023-01-19T07:58:40.099Z,89.23
2023-01-19T08:01:12.608Z,88.62
2023-01-19T08:03:41.611Z,89.42
2023-01-19T08:06:22.267Z,87.12
2023-01-19T08:08:51.890Z,85.47
2023-01-19T08:11:21.563Z,85.35
2023-01-19T08:13:48.582Z,85.91
2023-01-19T08:16:15.887Z,85.14
2023-01-19T08:18:42.943Z,85.37
2023-01-19T08:21:10.042Z,85.48
2023-01-19T08:23:36.985Z,84.46
2023-01-19T08:26:21.552Z,82.64
2023-01-19T08:28:48.434Z,82.60
2023-01-19T08:31:21.146Z,81.77
2023-01-19T08:33:50.227Z,80.84
2023-01-19T08:36:17.327Z,79.29
2023-01-19T08:38:48.319Z,80.60
2023-01-19T08:41:17.118Z,80.73
2023-01-19T08:43:45.578Z,79.93
2023-01-19T08:46:12.900Z,80.32
2023-01-19T08:48:40.807Z,81.57
2023-01-19T08:51:10.330Z,80.23
2023-01-19T08:53:37.082Z,79.48
2023-01-19T08:56:04.123Z,79.54
2023-01-19T08:58:31.119Z,82.42
2023-01-19T09:01:01.503Z,83.59
2023-01-19T09:03:30.776Z,83.21
2023-01-19T09:05:59.782Z,83.05
2023-01-19T09:08:27.553Z,82.37
2023-01-19T09:10:54.570Z,82.54
2023-01-19T09:13:22.366Z,81.65
2023-01-19T09:15:50.713Z,80.93
2023-01-19T09:18:21.900Z,79.92
2023-01-19T09:20:50.605Z,79.80
2023-01-19T09:23:19.600Z,79.60
2023-01-19T09:25:47.376Z,79.67
2023-01-19T09:28:17.759Z,80.17
2023-01-19T09:30:44.938Z,80.00
2023-01-19T09:33:16.567Z,78.86
2023-01-19T09:35:46.241Z,78.78
2023-01-19T09:38:15.526Z,80.45
2023-01-19T09:40:56.709Z,81.13
2023-01-19T09:43:27.103Z,81.70
2023-01-19T09:45:58.528Z,82.95
2023-01-19T09:48:46.009Z,84.06
2023-01-19T09:51:18.360Z,83.28
2023-01-19T09:53:55.607Z,82.20
2023-01-19T09:56:23.809Z,81.92
2023-01-19T09:58:52.206Z,81.99
2023-01-19T10:01:41.742Z,83.51
2023-01-19T10:04:42.242Z,83.81
2023-01-19T10:07:44.197Z,84.98
2023-01-19T10:10:21.680Z,85.87
2023-01-19T10:13:27.495Z,87.16
2023-01-19T10:16:22.157Z,88.38
2023-01-19T10:18:52.349Z,88.83
2023-01-19T10:21:28.227Z,88.77
2023-01-19T10:24:13.842Z,87.37
2023-01-19T10:26:52.782Z,86.58
2023-01-19T10:29:39.498Z,86.29
2023-01-19T10:32:19.960Z,86.61
2023-01-19T10:34:51.604Z,86.50
2023-01-19T10:37:29.753Z,87.38
2023-01-19T10:40:23.198Z,87.00
2023-01-19T10:42:53.124Z,87.37
2023-01-19T10:45:24.131Z,85.94
2023-01-19T10:47:55.372Z,85.40
2023-01-19T10:50:32.620Z,86.57
2023-01-19T10:53:04.269Z,87.63
2023-01-19T10:55:39.925Z,87.57
2023-01-19T10:58:28.765Z,87.98
2023-01-19T11:01:18.028Z,87.75
2023-01-19T11:03:48.754Z,88.02
2023-01-19T11:06:16.562Z,87.37
2023-01-19T11:08:46.106Z,88.29
2023-01-19T11:11:15.533Z,87.62
2023-01-19T11:13:44.157Z,88.04
2023-01-19T11:16:27.166Z,88.54
2023-01-19T11:18:56.782Z,87.99
2023-01-19T11:21:30.784Z,89.12
2023-01-19T11:24:00.900Z,88.69
2023-01-19T11:26:34.757Z,89.00
2023-01-19T11:29:04.150Z,87.36
2023-01-19T11:31:36.034Z,88.29
2023-01-19T11:34:06.300Z,89.22
2023-01-19T11:36:36.103Z,88.36
2023-01-19T11:39:28.260Z,88.17
2023-01-19T11:42:02.448Z,88.63
2023-01-19T11:44:47.974Z,88.89
2023-01-19T11:47:28.312Z,89.10
2023-01-19T11:50:04.889Z,88.75
2023-01-19T11:52:43.221Z,88.78
2023-01-19T11:55:14.971Z,88.61
2023-01-19T11:57:54.471Z,89.43
2023-01-19T12:00:39.924Z,88.32
2023-01-19T12:03:30.998Z,88.87
2023-01-19T12:06:06.933Z,88.07
2023-01-19T12:08:51.761Z,87.86
2023-01-19T12:11:39.196Z,86.73
2023-01-19T12:14:24.471Z,85.22
2023-01-19T12:16:53.429Z,85.41
2023-01-19T12:19:29.580Z,86.04
2023-01-19T12:21:57.591Z,86.69
2023-01-19T12:24:36.732Z,86.72
2023-01-19T12:27:35.356Z,85.72
2023-01-19T12:30:04.158Z,86.93
2023-01-19T12:32:37.036Z,87.95
2023-01-19T12:35:04.300Z,86.99
2023-01-19T12:37:36.366Z,87.70
2023-01-19T12:40:20.706Z,87.26
2023-01-19T12:42:59.172Z,86.79
2023-01-19T12:45:48.351Z,86.18
2023-01-19T12:48:26.599Z,85.84
2023-01-19T12:50:55.036Z,85.49
2023-01-19T12:53:23.123Z,85.91
2023-01-19T12:56:02.092Z,86.39
2023-01-19T12:58:30.212Z,86.93
2023-01-19T13:01:21.278Z,87.12
2023-01-19T13:04:27.336Z,86.43
2023-01-19T13:06:55.671Z,86.83
2023-01-19T13:09:33.491Z,86.03
2023-01-19T13:12:21.346Z,86.17
2023-01-19T13:14:50.799Z,84.64
2023-01-19T13:17:27.126Z,84.64
2023-01-19T13:20:17.322Z,84.96
2023-01-19T13:22:50.998Z,85.45
2023-01-19T13:25:35.903Z,85.25
2023-01-19T13:28:09.355Z,84.70
2023-01-19T13:30:46.067Z,85.43
2023-01-19T13:33:21.564Z,85.91
2023-01-19T13:35:54.888Z,85.14
2023-01-19T13:38:27.577Z,85.98
2023-01-19T13:40:56.766Z,85.95
2023-01-19T13:43:37.756Z,85.40
2023-01-19T13:46:05.927Z,84.04
2023-01-19T13:48:34.788Z,84.03
2023-01-19T13:51:06.791Z,84.52
2023-01-19T13:53:34.679Z,84.18
2023-01-19T13:56:23.613Z,84.36
2023-01-19T13:59:00.233Z,83.49
2023-01-19T14:01:29.371Z,84.29
2023-01-19T14:03:57.745Z,83.79
2023-01-19T14:06:46.658Z,83.25
2023-01-19T14:09:19.302Z,84.30
2023-01-19T14:12:07.170Z,83.31
2023-01-19T14:14:34.267Z,83.45
2023-01-19T14:17:06.656Z,83.09
2023-01-19T14:19:51.664Z,81.58
2023-01-19T14:22:19.802Z,81.32
2023-01-19T14:24:50.949Z,81.70
2023-01-19T14:27:24.439Z,81.84
2023-01-19T14:29:54.472Z,81.43
2023-01-19T14:32:27.855Z,81.60
2023-01-19T14:35:05.116Z,81.93
2023-01-19T14:37:35.973Z,82.14
2023-01-19T14:40:13.233Z,81.37
2023-01-19T14:42:53.621Z,81.72
2023-01-19T14:45:30.674Z,81.03
2023-01-19T14:48:04.177Z,80.68
2023-01-19T14:50:37.692Z,81.27
2023-01-19T14:53:17.048Z,80.89
2023-01-19T14:55:50.580Z,81.60
2023-01-19T14:58:20.911Z,81.52
2023-01-19T15:00:49.489Z,81.10
2023-01-19T15:03:17.514Z,81.70
2023-01-19T15:05:47.081Z,81.25
2023-01-19T15:08:21.811Z,81.13
2023-01-19T15:10:50.516Z,81.06
2023-01-19T15:13:21.112Z,79.98
2023-01-19T15:15:50.409Z,79.56
2023-01-19T15:18:22.917Z,80.60
2023-01-19T15:20:55.600Z,80.25
2023-01-19T15:23:23.399Z,80.56
2023-01-19T15:25:52.398Z,80.19
2023-01-19T15:28:20.483Z,80.14
2023-01-19T15:30:48.496Z,81.57
2023-01-19T15:33:26.541Z,80.92
2023-01-19T15:35:54.228Z,80.57
2023-01-19T15:38:22.641Z,81.00
2023-01-19T15:41:17.842Z,81.44
2023-01-19T15:43:44.820Z,80.80
2023-01-19T15:46:15.914Z,81.58
2023-01-19T15:48:42.961Z,81.81
2023-01-19T15:51:18.604Z,81.83
2023-01-19T15:53:48.925Z,81.08
2023-01-19T15:56:21.324Z,80.93
2023-01-19T15:58:48.255Z,81.66
2023-01-19T16:01:22.212Z,81.92
2023-01-19T16:03:50.766Z,81.06
2023-01-19T16:06:18.505Z,80.67
2023-01-19T16:08:45.684Z,81.18
2023-01-19T16:11:15.368Z,80.11
2023-01-19T16:13:46.743Z,79.53
2023-01-19T16:16:19.258Z,78.73
2023-01-19T16:18:47.158Z,79.90
2023-01-19T16:21:14.516Z,79.79
2023-01-19T16:23:42.065Z,79.72
2023-01-19T16:26:25.987Z,79.59
2023-01-19T16:28:56.282Z,79.83
2023-01-19T16:31:24.282Z,80.34
2023-01-19T16:33:52.565Z,80.49
2023-01-19T16:36:19.692Z,79.41
2023-01-19T16:38:46.605Z,80.09
2023-01-19T16:41:13.613Z,80.74
2023-01-19T16:43:40.729Z,79.69
2023-01-19T16:46:21.611Z,79.05
2023-01-19T16:48:48.712Z,79.05
2023-01-19T16:51:17.320Z,79.06
2023-01-19T16:53:45.891Z,79.61
2023-01-19T16:56:14.885Z,78.13
2023-01-19T16:58:43.260Z,78.10
2023-01-19T17:01:12.860Z,77.97
2023-01-19T17:03:43.029Z,78.33
2023-01-19T17:06:14.361Z,78.58
2023-01-19T17:08:43.045Z,79.05
2023-01-19T17:11:20.944Z,79.66
2023-01-19T17:13:54.595Z,80.24
2023-01-19T17:16:26.816Z,80.47
2023-01-19T17:18:57.220Z,80.86
2023-01-19T17:21:24.482Z,80.22
2023-01-19T17:23:55.453Z,80.01
2023-01-19T17:26:25.332Z,86.31
2023-01-19T17:29:02.430Z,77.88
2023-01-19T17:31:30.850Z,78.33
2023-01-19T17:33:59.996Z,78.27
2023-01-19T17:36:29.344Z,77.75
2023-01-19T17:39:17.028Z,78.46
2023-01-19T17:41:45.838Z,77.63
2023-01-19T17:44:12.901Z,77.54
2023-01-19T17:46:41.093Z,77.75
2023-01-19T17:49:08.546Z,77.45
2023-01-19T17:51:36.478Z,77.13
2023-01-19T17:54:06.053Z,77.20
2023-01-19T17:56:36.965Z,76.96
2023-01-19T17:59:06.654Z,77.25
2023-01-19T18:01:34.935Z,76.64
2023-01-19T18:04:03.185Z,77.57
2023-01-19T18:06:31.059Z,77.39
2023-01-19T18:09:01.743Z,78.37
2023-01-19T18:11:29.698Z,77.83
2023-01-19T18:13:58.512Z,77.77
2023-01-19T18:16:27.757Z,78.62
2023-01-19T18:18:56.625Z,80.35
2023-01-19T18:21:28.274Z,81.37
2023-01-19T18:24:01.556Z,80.87
2023-01-19T18:26:29.374Z,80.54
2023-01-19T18:28:57.593Z,81.12
2023-01-19T18:31:27.787Z,81.54
2023-01-19T18:33:55.706Z,81.31
2023-01-19T18:36:23.836Z,80.61
2023-01-19T18:38:51.973Z,80.21
2023-01-19T18:41:21.596Z,79.53
2023-01-19T18:43:49.855Z,80.30
2023-01-19T18:46:17.281Z,80.50
2023-01-19T18:48:46.185Z,80.12
2023-01-19T18:51:15.830Z,79.31
2023-01-19T18:53:44.719Z,79.60
2023-01-19T18:56:13.794Z,79.17
2023-01-19T18:58:42.853Z,78.71
2023-01-19T19:01:17.944Z,78.52
2023-01-19T19:03:45.877Z,78.59
2023-01-19T19:06:14.676Z,78.93
2023-01-19T19:08:44.218Z,78.39
2023-01-19T19:11:14.188Z,76.96
2023-01-19T19:13:42.478Z,76.47
2023-01-19T19:16:12.154Z,76.31
2023-01-19T19:18:40.214Z,77.64
2023-01-19T19:21:10.235Z,77.26
2023-01-19T19:23:38.953Z,77.01
2023-01-19T19:26:09.618Z,76.89
2023-01-19T19:28:39.032Z,78.41
2023-01-19T19:31:09.280Z,79.03
2023-01-19T19:33:38.110Z,78.50
2023-01-19T19:36:07.045Z,77.64
2023-01-19T19:38:36.988Z,77.55
2023-01-19T19:41:06.607Z,77.22
2023-01-19T19:43:36.501Z,77.42
2023-01-19T19:46:09.545Z,78.14
2023-01-19T19:48:39.235Z,77.66
2023-01-19T19:51:18.441Z,77.70
2023-01-19T19:53:46.282Z,78.08
2023-01-19T19:56:13.798Z,77.57
2023-01-19T19:58:43.840Z,78.10
2023-01-19T20:01:14.440Z,78.29
2023-01-19T20:03:42.407Z,77.83
2023-01-19T20:06:15.382Z,77.79
2023-01-19T20:08:42.349Z,78.92
2023-01-19T20:11:11.962Z,78.82
2023-01-19T20:13:40.669Z,77.91
2023-01-19T20:16:12.682Z,77.66
2023-01-19T20:18:48.762Z,76.80
2023-01-19T20:21:16.995Z,75.74
2023-01-19T20:24:06.511Z,74.46
2023-01-19T20:26:36.977Z,74.26
2023-01-19T20:29:12.145Z,74.28
2023-01-19T20:31:43.317Z,73.11
2023-01-19T20:34:13.573Z,74.11
2023-01-19T20:36:41.278Z,72.91
2023-01-19T20:39:13.044Z,72.94
2023-01-19T20:41:45.551Z,73.04
2023-01-19T20:44:16.669Z,72.50
2023-01-19T20:46:45.000Z,73.04
2023-01-19T20:49:13.426Z,72.04
2023-01-19T20:51:43.604Z,71.55
2023-01-19T20:54:12.031Z,71.05
2023-01-19T20:56:41.345Z,70.62
2023-01-19T20:59:11.895Z,73.46
2023-01-19T21:01:40.278Z,74.76
2023-01-19T21:04:08.861Z,73.46
2023-01-19T21:06:37.467Z,75.17
2023-01-19T21:09:05.529Z,73.96
2023-01-19T21:11:34.079Z,73.13
2023-01-19T21:14:02.355Z,71.51
2023-01-19T21:16:33.339Z,71.11
2023-01-19T21:19:01.855Z,70.18
2023-01-19T21:21:31.398Z,70.81
2023-01-19T21:24:01.954Z,70.24
2023-01-19T21:26:33.717Z,69.34
2023-01-19T21:29:03.198Z,69.07
2023-01-19T21:31:30.481Z,71.12
2023-01-19T21:33:59.477Z,70.73
2023-01-19T21:36:27.768Z,72.66
2023-01-19T21:39:00.875Z,71.93
2023-01-19T21:41:30.204Z,72.48
2023-01-19T21:44:00.083Z,73.02
2023-01-19T21:46:29.532Z,72.74
2023-01-19T21:49:02.215Z,73.53
2023-01-19T21:51:33.763Z,74.94
2023-01-19T21:54:06.308Z,73.94
2023-01-19T21:56:35.316Z,73.51
2023-01-19T21:59:03.727Z,73.78
2023-01-19T22:01:33.722Z,74.03
2023-01-19T22:04:02.003Z,74.35
2023-01-19T22:06:30.181Z,73.06
2023-01-19T22:08:58.523Z,73.34
2023-01-19T22:11:27.050Z,72.71
2023-01-19T22:13:55.181Z,73.01
2023-01-19T22:16:24.090Z,72.63
2023-01-19T22:18:59.634Z,73.53
2023-01-19T22:21:32.681Z,73.73
2023-01-19T22:24:02.072Z,74.53
2023-01-19T22:26:31.060Z,75.00
2023-01-19T22:29:01.548Z,75.94
2023-01-19T22:31:30.648Z,75.51
2023-01-19T22:34:11.055Z,74.40
2023-01-19T22:36:40.696Z,73.78
2023-01-19T22:39:11.397Z,72.54
2023-01-19T22:41:46.884Z,70.78
2023-01-19T22:44:16.578Z,72.24
2023-01-19T22:46:46.150Z,71.15
2023-01-19T22:49:17.168Z,70.17
2023-01-19T22:51:45.450Z,69.70
2023-01-19T22:54:13.855Z,69.52
2023-01-19T22:56:42.104Z,69.02
2023-01-19T22:59:09.864Z,70.19
2023-01-19T23:01:40.195Z,70.11
2023-01-19T23:04:11.913Z,70.05
2023-01-19T23:06:39.309Z,70.99
2023-01-19T23:09:12.218Z,70.83
2023-01-19T23:11:42.647Z,70.40
2023-01-19T23:14:15.858Z,70.11
2023-01-19T23:16:43.008Z,71.65
2023-01-19T23:19:12.259Z,71.61
2023-01-19T23:21:41.869Z,72.13
2023-01-19T23:24:09.848Z,73.48
2023-01-19T23:26:40.375Z,74.58
2023-01-19T23:29:12.764Z,73.88
2023-01-19T23:31:44.447Z,72.85
2023-01-19T23:34:13.682Z,72.57
2023-01-19T23:36:42.786Z,73.99
2023-01-19T23:39:16.477Z,74.71
2023-01-19T23:41:44.339Z,74.30
2023-01-19T23:44:13.699Z,73.71
2023-01-19T23:46:41.558Z,74.46
2023-01-19T23:49:09.556Z,75.17
2023-01-19T23:51:37.692Z,76.70
2023-01-19T23:54:06.435Z,75.65
2023-01-19T23:56:37.299Z,76.50
2023-01-19T23:59:07.528Z,77.07
